Terminal Aerodrome Forecast
Issued by NWS

Home | Current Version | Previous Version | Graphics & Text | Print | Product List | Glossary On
Versions: 1 2 3 4 5 6 7 8 9 10 11 12 13 14
000
FTUS43 KTOP 111610 AAA
TAFMHK
TAF AMD
KMHK 111610Z 1116/1212 27008KT P6SM BKN150 WS013/33040KT
     FM111730 32018G25KT P6SM SCT250
     FM112230 33016G22KT P6SM BKN035
     FM120300 34010KT P6SM SCT040=

USA.gov is the U.S. government's official web portal to all federal, state and local government web resources and services.